Time;durP1;ratioP1;P1;durP2;ratioP2;P2;SDS_P1;SDS_P2;PMS_P1;PMS_P2;Temp;Humidity;BMP_temperature;BMP_pressure;BME280_temperature;BME280_humidity;BME280_pressure;Samples;Min_cycle;Max_cycle;Signal;HPM_P1;HPM_P2
2022/04/27 00:00:29;;;;;;;1.17;0.90;;;11.60;72.20;;;;;;5134475;27;20076;-53
2022/04/27 00:02:58;;;;;;;1.73;1.20;;;11.60;72.10;;;;;;5116200;27;20507;-52
2022/04/27 00:05:25;;;;;;;2.58;1.10;;;11.60;72.10;;;;;;5134141;27;20440;-52
2022/04/27 00:07:51;;;;;;;2.38;1.17;;;11.60;71.90;;;;;;5134437;27;20019;-53
2022/04/27 00:10:20;;;;;;;1.00;0.90;;;11.60;72.00;;;;;;5134101;27;20064;-59
2022/04/27 00:12:47;;;;;;;1.30;1.00;;;11.60;72.00;;;;;;5116271;27;20076;-54
2022/04/27 00:15:14;;;;;;;1.55;1.00;;;11.50;72.00;;;;;;5134398;27;20026;-61
2022/04/27 00:17:40;;;;;;;1.20;1.10;;;11.50;72.00;;;;;;5134266;27;20485;-54
2022/04/27 00:20:07;;;;;;;1.40;1.10;;;11.50;71.80;;;;;;5134304;27;20106;-60
2022/04/27 00:22:33;;;;;;;1.77;1.40;;;11.60;72.00;;;;;;5133701;27;20030;-54
2022/04/27 00:25:03;;;;;;;1.30;1.10;;;11.60;71.80;;;;;;5116161;27;20030;-55
2022/04/27 00:27:29;;;;;;;2.13;1.30;;;11.50;71.70;;;;;;5115329;27;20107;-51
2022/04/27 00:29:56;;;;;;;3.00;1.10;;;11.60;72.00;;;;;;5115765;27;20031;-54
2022/04/27 00:32:22;;;;;;;1.75;1.10;;;11.60;71.80;;;;;;5115160;27;20022;-53
2022/04/27 00:34:48;;;;;;;1.30;1.02;;;11.60;71.50;;;;;;5134380;27;20020;-56
2022/04/27 00:37:14;;;;;;;2.28;1.20;;;11.50;71.60;;;;;;5115428;27;20034;-62
2022/04/27 00:39:40;;;;;;;1.42;1.00;;;11.50;71.70;;;;;;5115740;27;20023;-54
2022/04/27 00:42:17;;;;;;;1.83;1.10;;;11.50;71.70;;;;;;5115399;27;20422;-54
2022/04/27 00:44:46;;;;;;;1.15;0.90;;;11.50;71.50;;;;;;5134003;27;20134;-54
2022/04/27 00:47:15;;;;;;;1.50;1.10;;;11.50;71.50;;;;;;5133845;27;20034;-61
2022/04/27 00:49:45;;;;;;;0.73;0.70;;;11.50;71.20;;;;;;5115466;27;20019;-56
2022/04/27 00:52:13;;;;;;;1.00;0.90;;;11.50;71.20;;;;;;5134150;27;20027;-53
2022/04/27 00:54:46;;;;;;;1.55;0.90;;;11.50;71.40;;;;;;5133384;27;20023;-53
2022/04/27 00:57:12;;;;;;;0.80;0.80;;;11.50;71.50;;;;;;5115125;27;20027;-57
2022/04/27 00:59:39;;;;;;;1.33;1.13;;;11.50;71.50;;;;;;5133245;27;20098;-51
2022/04/27 01:02:05;;;;;;;1.83;1.23;;;11.40;71.70;;;;;;5098495;27;20023;-54
2022/04/27 01:04:37;;;;;;;1.13;1.00;;;11.40;71.80;;;;;;5114385;27;20027;-54
2022/04/27 01:07:04;;;;;;;1.30;0.90;;;11.40;72.00;;;;;;5113515;27;20038;-54
2022/04/27 01:09:30;;;;;;;1.35;1.15;;;11.40;72.00;;;;;;5132573;27;20050;-54
2022/04/27 01:11:57;;;;;;;3.63;1.33;;;11.40;72.20;;;;;;5132840;27;20027;-54
2022/04/27 01:14:23;;;;;;;1.52;1.10;;;11.40;72.30;;;;;;5132805;27;20499;-51
2022/04/27 01:16:57;;;;;;;1.30;0.90;;;11.40;72.20;;;;;;5133248;27;20042;-55
2022/04/27 01:19:24;;;;;;;1.10;1.00;;;11.40;72.10;;;;;;5114237;27;20038;-52
2022/04/27 01:21:50;;;;;;;1.15;0.90;;;11.30;72.10;;;;;;5133498;27;20064;-56
2022/04/27 01:24:25;;;;;;;2.47;0.90;;;11.40;72.20;;;;;;5132682;27;20031;-61
2022/04/27 01:26:52;;;;;;;0.90;0.80;;;11.30;72.30;;;;;;5114666;27;20027;-53
2022/04/27 01:29:19;;;;;;;4.00;1.05;;;11.30;72.40;;;;;;5132642;27;20050;-59
2022/04/27 01:31:46;;;;;;;1.30;1.05;;;11.30;72.70;;;;;;5133107;27;20075;-55
2022/04/27 01:34:13;;;;;;;1.58;0.90;;;11.30;73.00;;;;;;5133197;27;20075;-53
2022/04/27 01:36:39;;;;;;;2.20;1.08;;;11.20;73.10;;;;;;5132752;27;20080;-53
2022/04/27 01:39:06;;;;;;;1.05;0.90;;;11.30;73.10;;;;;;5133200;27;20019;-51
2022/04/27 01:41:33;;;;;;;0.75;0.75;;;11.30;72.90;;;;;;5132791;27;20038;-55
2022/04/27 01:43:59;;;;;;;0.82;0.77;;;11.30;72.50;;;;;;5133424;27;20027;-51
2022/04/27 01:46:27;;;;;;;1.30;0.80;;;11.30;72.70;;;;;;5132782;27;20023;-56
2022/04/27 01:54:22;;;;;;;;;;;11.30;72.60;;;;;;5133218;27;20124;-53
2022/04/27 01:56:50;;;;;;;1.20;0.80;;;11.40;72.60;;;;;;5114606;27;19903;-54
2022/04/27 01:59:16;;;;;;;0.98;0.88;;;11.30;72.50;;;;;;5132416;27;20031;-61
2022/04/27 02:01:43;;;;;;;1.00;0.85;;;11.30;72.60;;;;;;5114733;27;20072;-49
2022/04/27 02:04:09;;;;;;;1.48;0.80;;;11.30;72.60;;;;;;5133198;27;20023;-51
2022/04/27 02:06:38;;;;;;;0.93;0.63;;;11.30;72.70;;;;;;5114134;27;20433;-49
2022/04/27 02:09:05;;;;;;;0.90;0.80;;;11.30;72.70;;;;;;5132689;27;20019;-53
2022/04/27 02:11:32;;;;;;;0.85;0.70;;;11.30;72.70;;;;;;5132300;27;20040;-49
2022/04/27 02:13:58;;;;;;;2.20;0.90;;;11.20;73.00;;;;;;5132737;27;20023;-52
2022/04/27 02:16:25;;;;;;;0.98;0.77;;;11.30;72.90;;;;;;5132392;27;20027;-54
2022/04/27 02:18:52;;;;;;;1.00;0.73;;;11.20;73.00;;;;;;5132873;27;20031;-55
2022/04/27 02:21:18;;;;;;;1.08;0.80;;;11.30;72.90;;;;;;5113833;28;20590;-59
2022/04/27 02:23:46;;;;;;;0.75;0.70;;;11.30;73.00;;;;;;5114145;28;20114;-53
2022/04/27 02:26:12;;;;;;;1.20;0.90;;;11.20;73.20;;;;;;5132798;27;20028;-53
2022/04/27 02:28:38;;;;;;;0.90;0.80;;;11.30;73.30;;;;;;5132094;27;20520;-50
2022/04/27 02:31:04;;;;;;;1.20;0.90;;;11.30;72.90;;;;;;5114529;28;20043;-49
2022/04/27 02:33:30;;;;;;;1.23;0.95;;;11.30;73.00;;;;;;5132223;27;20016;-48
2022/04/27 02:35:56;;;;;;;1.45;0.90;;;11.20;72.90;;;;;;5114152;28;20023;-49
2022/04/27 02:38:22;;;;;;;0.88;0.80;;;11.20;73.10;;;;;;5113979;28;20098;-48
2022/04/27 02:40:48;;;;;;;2.90;1.05;;;11.20;73.20;;;;;;5132979;27;20444;-52
2022/04/27 02:43:15;;;;;;;1.10;0.82;;;11.20;73.10;;;;;;5132667;27;20529;-53
2022/04/27 02:45:41;;;;;;;1.40;1.00;;;11.20;72.90;;;;;;5113758;28;20027;-52
2022/04/27 02:48:07;;;;;;;1.20;1.10;;;11.20;72.80;;;;;;5132850;27;20031;-50
2022/04/27 02:53:18;;;;;;;1.67;1.33;;;11.30;72.70;;;;;;5132003;28;20491;-59
2022/04/27 02:55:44;;;;;;;2.72;1.20;;;11.30;72.70;;;;;;5132141;27;20060;-53
2022/04/27 02:58:10;;;;;;;4.15;1.30;;;11.30;72.90;;;;;;5113882;28;20110;-49
2022/04/27 03:00:36;;;;;;;2.95;1.63;;;11.30;72.80;;;;;;5115184;27;20023;-53
2022/04/27 03:03:02;;;;;;;2.08;1.50;;;11.30;72.90;;;;;;5136195;27;20022;-50
2022/04/27 03:05:28;;;;;;;1.75;1.25;;;11.30;73.00;;;;;;5135526;27;20050;-54
2022/04/27 03:07:54;;;;;;;1.80;1.30;;;11.30;73.00;;;;;;5118193;27;20451;-55
2022/04/27 03:10:20;;;;;;;2.28;1.67;;;11.20;73.00;;;;;;5135822;27;20026;-53
2022/04/27 03:12:46;;;;;;;2.03;1.67;;;11.20;73.20;;;;;;5136276;27;20387;-49
2022/04/27 03:15:12;;;;;;;2.45;1.80;;;11.20;73.40;;;;;;5136228;27;20090;-48
2022/04/27 03:17:37;;;;;;;2.25;1.65;;;11.20;73.60;;;;;;5117199;27;20357;-51
2022/04/27 03:20:04;;;;;;;2.10;1.70;;;11.20;73.70;;;;;;5117684;27;20472;-54
2022/04/27 03:22:30;;;;;;;2.75;1.75;;;11.20;73.70;;;;;;5135649;27;20376;-50
2022/04/27 03:24:56;;;;;;;2.40;1.70;;;11.20;73.50;;;;;;5100476;27;20019;-51
2022/04/27 03:27:21;;;;;;;3.00;2.00;;;11.30;73.40;;;;;;5117183;27;20463;-50
2022/04/27 03:29:47;;;;;;;2.78;1.85;;;11.20;73.30;;;;;;5100528;27;20027;-53
2022/04/27 03:32:13;;;;;;;3.28;2.22;;;11.20;73.60;;;;;;5135846;27;20038;-51
2022/04/27 03:34:39;;;;;;;4.22;2.30;;;11.20;73.70;;;;;;5117145;27;20375;-53
2022/04/27 03:37:05;;;;;;;9.75;3.33;;;11.20;73.80;;;;;;5135796;27;20490;-52
2022/04/27 03:39:30;;;;;;;4.20;2.80;;;11.20;73.90;;;;;;5116563;27;20023;-52
2022/04/27 03:41:57;;;;;;;3.28;2.75;;;11.20;73.90;;;;;;5117034;27;20404;-53
2022/04/27 03:44:23;;;;;;;3.47;2.92;;;11.20;73.80;;;;;;5116567;27;20027;-55
2022/04/27 03:46:49;;;;;;;4.10;2.80;;;11.30;73.80;;;;;;5116566;27;20035;-58
2022/04/27 03:49:14;;;;;;;4.32;3.00;;;11.30;73.60;;;;;;5135264;27;20026;-54
2022/04/27 03:51:40;;;;;;;4.40;3.53;;;11.30;73.50;;;;;;5116277;27;20432;-57
2022/04/27 03:54:09;;;;;;;3.90;3.20;;;11.30;73.60;;;;;;5116899;27;20030;-56
2022/04/27 03:56:34;;;;;;;4.30;3.42;;;11.20;73.50;;;;;;5134413;27;20031;-54
2022/04/27 03:59:00;;;;;;;4.35;3.38;;;11.30;73.60;;;;;;5135368;27;20424;-55
2022/04/27 04:01:26;;;;;;;5.13;3.17;;;11.40;73.30;;;;;;5116431;27;20023;-54
2022/04/27 04:03:52;;;;;;;4.60;3.67;;;11.40;73.30;;;;;;5135403;27;20030;-52
2022/04/27 04:06:19;;;;;;;5.28;3.63;;;11.40;73.00;;;;;;5134992;27;20490;-61
2022/04/27 04:08:44;;;;;;;4.20;3.47;;;11.50;72.90;;;;;;5134962;27;20019;-51
2022/04/27 04:11:11;;;;;;;4.93;3.60;;;11.50;72.80;;;;;;5134967;27;20113;-52
2022/04/27 04:13:37;;;;;;;4.72;3.35;;;11.50;72.70;;;;;;5115585;27;20030;-54
2022/04/27 04:16:03;;;;;;;4.20;3.60;;;11.60;72.50;;;;;;5134859;27;20027;-50
2022/04/27 04:18:29;;;;;;;5.65;3.42;;;11.60;72.20;;;;;;5116295;27;20026;-52
2022/04/27 04:20:54;;;;;;;5.20;3.47;;;11.70;72.20;;;;;;5099125;27;20027;-54
2022/04/27 04:23:20;;;;;;;4.45;3.67;;;11.70;72.00;;;;;;5133726;27;20083;-59
2022/04/27 04:28:30;;;;;;;6.45;3.85;;;11.60;72.00;;;;;;5133574;27;20094;-53
2022/04/27 04:30:58;;;;;;;5.95;3.88;;;11.70;72.50;;;;;;5135024;27;20467;-52
2022/04/27 04:33:42;;;;;;;6.22;4.03;;;11.70;71.90;;;;;;5134207;27;20383;-52
2022/04/27 04:36:09;;;;;;;5.03;3.90;;;11.70;71.80;;;;;;5134943;27;20116;-54
2022/04/27 04:38:34;;;;;;;4.95;3.80;;;11.70;71.70;;;;;;5115790;27;20411;-53
2022/04/27 04:41:02;;;;;;;5.38;3.55;;;11.80;71.50;;;;;;5115584;27;20023;-53
2022/04/27 04:43:32;;;;;;;6.63;3.63;;;11.70;71.50;;;;;;5133976;27;20043;-52
2022/04/27 04:45:58;;;;;;;7.50;3.80;;;11.70;71.40;;;;;;5134573;27;20027;-54
2022/04/27 04:48:25;;;;;;;5.22;3.58;;;11.80;71.40;;;;;;5133752;27;20019;-53
2022/04/27 04:51:11;;;;;;;5.30;3.92;;;11.80;71.40;;;;;;5134790;27;20068;-51
2022/04/27 04:53:36;;;;;;;6.05;3.75;;;11.80;71.20;;;;;;5133315;27;20029;-51
2022/04/27 04:56:02;;;;;;;7.05;3.85;;;11.80;71.20;;;;;;5098564;27;20023;-51
2022/04/27 04:58:28;;;;;;;7.55;3.88;;;11.90;70.90;;;;;;5133312;27;20119;-52
2022/04/27 05:00:54;;;;;;;5.65;3.72;;;11.90;70.80;;;;;;5114077;27;20076;-55
2022/04/27 05:03:19;;;;;;;7.32;3.55;;;12.00;70.60;;;;;;5135377;27;20098;-55
2022/04/27 05:05:45;;;;;;;6.82;4.30;;;12.00;70.30;;;;;;5115124;27;20027;-53
2022/04/27 05:08:11;;;;;;;6.00;3.80;;;12.00;70.00;;;;;;5133262;27;20083;-51
2022/04/27 05:10:37;;;;;;;5.28;3.72;;;12.00;69.70;;;;;;5133691;27;20023;-51
2022/04/27 05:13:03;;;;;;;5.00;4.05;;;12.00;69.80;;;;;;5133965;27;20063;-54
2022/04/27 05:15:29;;;;;;;6.30;3.67;;;12.10;69.90;;;;;;5133239;27;20026;-55
2022/04/27 05:17:54;;;;;;;6.78;5.15;;;12.10;69.80;;;;;;5133918;27;20027;-49
2022/04/27 05:20:20;;;;;;;7.05;3.97;;;12.10;69.30;;;;;;5133401;27;20109;-62
2022/04/27 05:22:46;;;;;;;4.57;3.75;;;12.00;69.50;;;;;;5132697;27;20384;-55
2022/04/27 05:25:11;;;;;;;5.53;3.50;;;12.00;69.60;;;;;;5133865;27;20027;-55
2022/04/27 05:27:56;;;;;;;6.63;3.40;;;12.00;69.80;;;;;;5132985;27;20498;-53
2022/04/27 05:33:05;;;;;;;3.55;3.25;;;12.10;69.40;;;;;;5133409;27;19911;-53
2022/04/27 05:35:39;;;;;;;6.55;3.80;;;12.00;69.10;;;;;;5132874;27;20027;-52
2022/04/27 05:38:05;;;;;;;4.70;3.45;;;12.10;69.20;;;;;;5133753;27;20023;-55
2022/04/27 05:40:30;;;;;;;5.07;3.85;;;12.10;69.00;;;;;;5131197;27;20038;-53
2022/04/27 05:42:57;;;;;;;5.78;3.75;;;12.10;68.90;;;;;;5132200;27;20510;-50
2022/04/27 05:45:24;;;;;;;5.40;3.60;;;12.20;68.90;;;;;;5132577;27;20091;-62
2022/04/27 05:47:49;;;;;;;6.32;3.88;;;12.20;68.30;;;;;;5132661;27;20028;-55
2022/04/27 05:50:15;;;;;;;5.25;3.72;;;12.20;68.30;;;;;;5133033;27;20440;-53
2022/04/27 05:52:56;;;;;;;6.80;3.83;;;12.20;68.30;;;;;;5132618;27;20090;-52
2022/04/27 05:55:25;;;;;;;6.32;3.90;;;12.20;68.00;;;;;;5114534;27;20530;-59
2022/04/27 05:57:51;;;;;;;9.90;3.75;;;12.10;67.90;;;;;;5133255;27;20030;-52
2022/04/27 06:00:18;;;;;;;5.28;3.97;;;12.10;68.10;;;;;;5114920;27;20076;-57
2022/04/27 06:02:44;;;;;;;6.18;4.60;;;12.00;68.40;;;;;;5114065;27;20114;-54
2022/04/27 06:05:10;;;;;;;5.90;3.90;;;12.00;68.60;;;;;;5132876;27;20031;-55
2022/04/27 06:07:37;;;;;;;12.48;5.80;;;12.10;68.60;;;;;;5132160;27;20027;-54
2022/04/27 06:10:08;;;;;;;5.15;3.67;;;12.00;68.30;;;;;;5133416;27;20027;-54
2022/04/27 06:12:36;;;;;;;5.68;3.75;;;12.00;68.70;;;;;;5114013;27;20422;-54
2022/04/27 06:15:03;;;;;;;5.65;3.33;;;12.00;68.90;;;;;;5132991;27;20023;-54
2022/04/27 06:17:30;;;;;;;6.15;3.15;;;11.90;69.00;;;;;;5132114;27;20379;-51
2022/04/27 06:19:57;;;;;;;5.15;3.03;;;11.90;69.30;;;;;;5132416;27;20022;-52
2022/04/27 06:22:23;;;;;;;7.00;3.53;;;11.90;69.30;;;;;;5132357;27;20079;-54
2022/04/27 06:24:49;;;;;;;7.07;3.42;;;11.90;70.00;;;;;;5131877;27;20022;-54
2022/04/27 06:27:15;;;;;;;9.32;3.75;;;11.90;69.40;;;;;;5114158;28;20106;-52
2022/04/27 06:29:41;;;;;;;8.10;3.10;;;11.80;69.80;;;;;;5132046;27;20495;-53
2022/04/27 06:32:07;;;;;;;5.00;2.83;;;11.80;69.90;;;;;;5132992;27;20106;-55
2022/04/27 06:34:33;;;;;;;4.25;3.03;;;11.90;69.70;;;;;;5132030;27;20024;-55
2022/04/27 06:36:58;;;;;;;7.13;3.20;;;11.90;69.70;;;;;;5132766;27;20019;-52
2022/04/27 06:39:24;;;;;;;6.13;3.10;;;11.90;69.90;;;;;;5114047;28;20028;-53
2022/04/27 06:41:51;;;;;;;5.97;2.95;;;11.90;69.60;;;;;;5131092;28;20050;-51
2022/04/27 06:44:17;;;;;;;6.93;3.80;;;12.10;69.60;;;;;;5113619;28;20023;-49
2022/04/27 06:46:43;;;;;;;10.73;4.53;;;12.20;69.00;;;;;;5132052;28;20392;-52
2022/04/27 06:49:09;;;;;;;6.60;3.50;;;12.20;68.70;;;;;;5114105;28;20023;-51
2022/04/27 06:51:34;;;;;;;6.18;3.60;;;12.20;68.50;;;;;;5113523;28;20055;-53
2022/04/27 06:54:00;;;;;;;6.90;3.92;;;12.30;68.20;;;;;;5132675;28;20023;-55
2022/04/27 06:56:26;;;;;;;5.32;3.20;;;12.40;67.70;;;;;;5114275;28;20019;-57
2022/04/27 06:58:52;;;;;;;6.85;3.40;;;12.40;67.40;;;;;;5113490;28;20046;-53
2022/04/27 07:01:18;;;;;;;11.40;4.30;;;12.50;67.30;;;;;;5114021;28;20436;-52
2022/04/27 07:04:08;;;;;;;6.07;3.55;;;12.60;67.30;;;;;;5113449;28;20027;-55
2022/04/27 07:06:33;;;;;;;5.60;3.67;;;12.70;66.90;;;;;;5131598;28;20024;-53
2022/04/27 07:09:00;;;;;;;8.82;3.70;;;12.80;66.30;;;;;;5132485;27;20026;-52
2022/04/27 07:11:26;;;;;;;6.63;3.58;;;12.90;66.00;;;;;;5114037;28;20023;-49
2022/04/27 07:13:54;;;;;;;9.00;3.35;;;13.00;65.80;;;;;;5113262;28;20163;-52
2022/04/27 07:16:20;;;;;;;6.68;3.67;;;13.00;65.40;;;;;;5113814;28;20027;-52
2022/04/27 07:18:46;;;;;;;6.97;3.72;;;13.00;65.50;;;;;;5131910;27;20099;-51
2022/04/27 07:21:12;;;;;;;6.45;3.42;;;13.20;65.50;;;;;;5132118;28;20046;-55
2022/04/27 07:23:38;;;;;;;5.03;3.20;;;13.20;64.70;;;;;;5113045;28;20024;-53
2022/04/27 07:26:07;;;;;;;4.55;3.50;;;13.20;64.70;;;;;;5113400;28;20027;-54
2022/04/27 07:28:34;;;;;;;7.72;4.10;;;13.30;64.60;;;;;;5112908;28;20170;-56
2022/04/27 07:30:59;;;;;;;7.07;3.30;;;13.40;64.60;;;;;;5132035;28;20101;-53
2022/04/27 07:33:25;;;;;;;5.18;3.75;;;13.40;64.00;;;;;;5131966;28;20468;-52
2022/04/27 07:35:51;;;;;;;4.38;3.28;;;13.50;64.00;;;;;;5131209;27;20047;-56
2022/04/27 07:38:17;;;;;;;6.53;3.15;;;13.50;63.90;;;;;;5113062;28;20023;-56
2022/04/27 07:40:42;;;;;;;10.05;6.35;;;13.50;63.70;;;;;;5112472;28;20072;-54
2022/04/27 07:43:08;;;;;;;7.53;3.70;;;13.50;64.20;;;;;;5095851;28;20048;-54
2022/04/27 07:45:37;;;;;;;10.35;3.30;;;13.60;64.20;;;;;;5088875;28;20066;-56
2022/04/27 07:48:03;;;;;;;6.72;4.18;;;13.70;63.80;;;;;;5093267;28;20028;-54
2022/04/27 07:50:29;;;;;;;10.43;3.60;;;13.80;63.40;;;;;;5093105;28;20032;-52
2022/04/27 07:52:56;;;;;;;6.57;4.07;;;13.70;63.20;;;;;;5093791;28;20016;-53
2022/04/27 07:55:22;;;;;;;8.43;3.70;;;13.60;63.50;;;;;;5093083;28;20066;-54
2022/04/27 07:57:48;;;;;;;6.95;3.95;;;13.70;63.70;;;;;;5092191;28;20488;-53
2022/04/27 08:00:14;;;;;;;15.82;3.80;;;13.70;63.70;;;;;;5092708;28;20024;-51
2022/04/27 08:02:41;;;;;;;12.05;3.95;;;13.80;63.60;;;;;;5091528;28;20020;-53
2022/04/27 08:05:08;;;;;;;10.55;4.15;;;13.80;63.30;;;;;;5093930;28;20031;-53
2022/04/27 08:07:39;;;;;;;8.93;4.32;;;13.90;63.60;;;;;;5093270;28;20031;-63
2022/04/27 08:10:08;;;;;;;12.90;4.55;;;14.00;63.20;;;;;;5094175;28;20067;-51
2022/04/27 08:12:33;;;;;;;8.73;3.45;;;14.10;62.90;;;;;;5093742;28;20024;-61
2022/04/27 08:14:59;;;;;;;10.68;3.95;;;14.10;62.80;;;;;;5093971;28;20073;-55
2022/04/27 08:17:25;;;;;;;10.70;4.47;;;14.20;62.90;;;;;;5094340;28;20075;-52
2022/04/27 08:21:13;;;;;;;8.82;3.80;;;14.30;62.50;;;;;;5093717;28;20365;-54
2022/04/27 08:22:38;;;;;;;7.05;4.07;;;14.30;62.60;;;;;;5093126;28;20111;-53
2022/04/27 08:25:04;;;;;;;7.20;3.97;;;14.40;62.20;;;;;;5092885;28;20052;-57
2022/04/27 08:27:30;;;;;;;6.85;4.63;;;14.50;62.50;;;;;;5093888;28;20111;-56
2022/04/27 08:29:55;;;;;;;12.02;8.02;;;14.70;62.20;;;;;;5093018;28;20106;-57
2022/04/27 08:32:22;;;;;;;9.60;4.45;;;14.80;61.50;;;;;;5092724;28;20020;-54
2022/04/27 08:34:51;;;;;;;8.48;4.10;;;15.00;61.30;;;;;;5091910;28;20024;-55
2022/04/27 08:37:18;;;;;;;11.05;4.70;;;15.20;60.70;;;;;;5092712;28;20035;-50
2022/04/27 08:39:44;;;;;;;8.85;4.00;;;15.20;60.20;;;;;;5091988;28;20142;-55
2022/04/27 08:42:11;;;;;;;5.80;4.57;;;15.10;60.50;;;;;;5105148;27;20042;-54
2022/04/27 08:44:38;;;;;;;6.40;4.00;;;15.10;60.90;;;;;;5134155;27;20023;-61
2022/04/27 08:47:08;;;;;;;6.53;4.28;;;15.30;61.10;;;;;;5134250;27;20034;-55
2022/04/27 08:49:34;;;;;;;9.02;4.05;;;15.50;59.90;;;;;;5115661;27;20026;-52
2022/04/27 08:52:03;;;;;;;7.22;3.72;;;15.50;59.60;;;;;;5115470;27;20467;-55
2022/04/27 08:54:33;;;;;;;7.85;3.83;;;15.30;59.60;;;;;;5115607;27;20106;-54
2022/04/27 08:56:59;;;;;;;8.70;4.35;;;15.30;60.10;;;;;;5114805;28;20027;-53
2022/04/27 08:59:25;;;;;;;6.95;4.30;;;15.50;60.10;;;;;;5133466;27;20034;-56
2022/04/27 09:01:51;;;;;;;9.85;4.00;;;15.50;59.50;;;;;;5133327;27;20031;-57
2022/04/27 09:04:19;;;;;;;11.68;5.10;;;15.40;59.90;;;;;;5115724;27;20049;-56
2022/04/27 09:06:47;;;;;;;8.90;5.72;;;15.30;60.20;;;;;;5114872;27;20028;-53
2022/04/27 09:09:37;;;;;;;8.95;4.95;;;15.30;59.70;;;;;;5115627;27;20159;-54
2022/04/27 09:12:08;;;;;;;10.38;5.28;;;15.20;60.20;;;;;;5115244;27;20152;-51
2022/04/27 09:14:38;;;;;;;8.05;5.60;;;15.10;60.60;;;;;;5098776;27;20027;-56
2022/04/27 09:22:44;;;;;;;;;;;15.00;61.00;;;;;;5134393;27;20171;-52
2022/04/27 09:25:10;;;;;;;9.90;5.68;;;15.00;61.10;;;;;;5115222;27;19904;-56
2022/04/27 09:27:36;;;;;;;9.98;5.60;;;14.90;61.30;;;;;;5115287;27;20026;-52
2022/04/27 09:30:07;;;;;;;10.57;5.97;;;14.90;61.50;;;;;;5114402;27;20031;-56
2022/04/27 09:32:34;;;;;;;12.93;6.10;;;14.70;61.80;;;;;;5133533;27;20019;-57
2022/04/27 09:35:03;;;;;;;11.45;5.82;;;14.70;62.30;;;;;;5132868;27;20107;-55
2022/04/27 09:37:33;;;;;;;10.35;5.82;;;14.70;62.30;;;;;;5133352;27;20015;-55
2022/04/27 09:40:06;;;;;;;9.43;5.38;;;14.70;62.60;;;;;;5114253;27;20052;-55
2022/04/27 09:42:44;;;;;;;7.18;5.40;;;14.60;62.80;;;;;;5133444;27;20534;-53
2022/04/27 09:45:26;;;;;;;8.80;5.45;;;14.70;62.80;;;;;;5133318;27;20027;-54
2022/04/27 09:48:03;;;;;;;8.70;5.85;;;14.70;62.90;;;;;;5132679;27;20023;-56
2022/04/27 09:50:50;;;;;;;8.57;5.75;;;14.60;63.10;;;;;;5114881;27;20083;-54
2022/04/27 09:53:18;;;;;;;8.52;6.00;;;14.50;63.70;;;;;;5133164;27;20497;-55
2022/04/27 09:55:49;;;;;;;8.73;6.22;;;14.40;63.80;;;;;;5132495;27;20035;-56
2022/04/27 09:58:16;;;;;;;12.88;6.25;;;14.30;63.90;;;;;;5114715;27;20027;-56
2022/04/27 10:00:43;;;;;;;8.63;6.00;;;14.40;63.90;;;;;;5132653;27;20117;-61
2022/04/27 10:03:15;;;;;;;10.13;6.68;;;14.40;64.00;;;;;;5114515;27;20035;-52
2022/04/27 10:05:43;;;;;;;11.80;6.38;;;14.40;64.40;;;;;;5132595;27;20051;-63
2022/04/27 10:08:10;;;;;;;8.70;6.93;;;14.30;64.50;;;;;;5114492;27;20029;-57
2022/04/27 10:10:47;;;;;;;10.98;6.53;;;14.40;64.50;;;;;;5132522;27;20015;-55
2022/04/27 10:13:15;;;;;;;9.07;6.40;;;14.50;64.40;;;;;;5132824;27;20080;-56
2022/04/27 10:15:46;;;;;;;7.82;6.85;;;14.60;63.70;;;;;;5114233;28;20029;-63
2022/04/27 10:18:16;;;;;;;8.32;5.82;;;14.70;64.20;;;;;;5114205;27;20479;-56
2022/04/27 10:20:43;;;;;;;13.60;6.13;;;14.80;63.20;;;;;;5132421;27;20028;-61
2022/04/27 10:23:28;;;;;;;7.05;5.60;;;14.90;63.20;;;;;;5114017;27;20023;-53
2022/04/27 10:26:17;;;;;;;10.45;5.90;;;15.00;63.10;;;;;;5131803;27;20113;-55
2022/04/27 10:28:56;;;;;;;7.22;5.57;;;15.10;62.40;;;;;;5132182;27;20071;-59
2022/04/27 10:31:40;;;;;;;7.55;6.32;;;15.00;62.40;;;;;;5132550;27;20472;-54
2022/04/27 10:34:20;;;;;;;8.75;6.78;;;15.00;62.80;;;;;;5113467;27;20031;-55
2022/04/27 10:36:53;;;;;;;8.57;6.45;;;15.10;62.10;;;;;;5131838;27;20035;-59
2022/04/27 10:39:24;;;;;;;7.22;5.88;;;15.20;62.10;;;;;;5132453;27;20027;-54
2022/04/27 10:42:03;;;;;;;7.22;5.97;;;15.50;61.70;;;;;;5112764;28;20043;-54
2022/04/27 10:44:48;;;;;;;7.78;6.18;;;15.60;61.50;;;;;;5132240;28;20456;-56
2022/04/27 10:47:20;;;;;;;;;;;15.90;60.50;;;;;;5132923;28;20035;-55
2022/04/27 10:49:47;;;;;;;7.00;5.50;;;15.90;60.10;;;;;;5112748;28;20356;-59
2022/04/27 10:52:14;;;;;;;8.65;6.30;;;15.90;60.20;;;;;;5131879;28;20107;-53
2022/04/27 10:54:41;;;;;;;6.55;5.30;;;16.00;60.20;;;;;;5131626;27;20156;-55
2022/04/27 10:57:16;;;;;;;12.73;5.60;;;16.20;59.70;;;;;;5112622;28;20023;-55
2022/04/27 10:59:47;;;;;;;8.70;5.82;;;16.20;59.30;;;;;;5113157;28;20023;-57
2022/04/27 11:02:35;;;;;;;8.10;5.72;;;16.10;59.40;;;;;;5112894;28;20029;-56
2022/04/27 11:05:21;;;;;;;9.25;5.40;;;16.10;59.30;;;;;;5112387;28;20023;-60
2022/04/27 11:07:58;;;;;;;7.65;5.95;;;16.10;59.40;;;;;;5113008;28;20031;-63
2022/04/27 11:10:26;;;;;;;10.75;5.70;;;16.10;59.00;;;;;;5131529;28;20493;-57
2022/04/27 11:12:53;;;;;;;17.35;12.55;;;16.10;59.20;;;;;;5131160;27;20019;-57
2022/04/27 11:15:23;;;;;;;5.80;5.20;;;16.50;59.10;;;;;;5113412;28;20387;-54
2022/04/27 11:18:07;;;;;;;9.70;5.88;;;16.70;57.30;;;;;;5131108;28;20046;-58
2022/04/27 11:20:38;;;;;;;10.70;5.43;;;16.80;56.90;;;;;;5132126;27;20076;-53
2022/04/27 11:23:07;;;;;;;10.88;4.78;;;16.80;56.80;;;;;;5116677;27;20087;-54
2022/04/27 11:25:39;;;;;;;7.97;5.22;;;17.00;56.90;;;;;;5135857;27;20476;-56
2022/04/27 11:28:07;;;;;;;8.95;4.72;;;17.10;56.20;;;;;;5116528;27;20026;-55
2022/04/27 11:30:33;;;;;;;10.25;5.07;;;17.20;55.60;;;;;;5135971;27;20349;-58
2022/04/27 11:33:03;;;;;;;6.47;4.95;;;17.10;55.50;;;;;;5135144;27;20019;-56
2022/04/27 11:35:39;;;;;;;17.33;8.50;;;16.80;55.70;;;;;;5135552;27;20099;-56
2022/04/27 11:38:06;;;;;;;13.40;8.30;;;16.60;56.60;;;;;;5134772;27;20019;-56
2022/04/27 11:40:37;;;;;;;7.97;5.30;;;16.60;56.90;;;;;;5135623;27;20063;-55
2022/04/27 11:43:06;;;;;;;12.20;5.20;;;16.60;56.70;;;;;;5134700;27;20039;-53
2022/04/27 11:45:33;;;;;;;6.22;5.13;;;16.60;57.00;;;;;;5134968;27;20020;-55
2022/04/27 11:48:03;;;;;;;9.20;4.97;;;16.70;56.50;;;;;;5115958;27;20484;-56
2022/04/27 11:50:34;;;;;;;10.20;5.55;;;16.70;56.40;;;;;;5134961;27;20050;-55
2022/04/27 11:53:04;;;;;;;9.40;5.50;;;17.00;56.20;;;;;;5116629;27;20019;-54
2022/04/27 11:55:31;;;;;;;9.32;4.82;;;17.10;55.40;;;;;;5116889;27;20037;-54
2022/04/27 11:57:57;;;;;;;7.05;4.55;;;17.20;54.90;;;;;;5133893;27;20555;-54
2022/04/27 12:00:28;;;;;;;6.90;4.55;;;17.10;55.20;;;;;;5134791;27;20416;-56
2022/04/27 12:03:03;;;;;;;9.55;4.75;;;16.90;55.50;;;;;;5115420;27;20034;-58
2022/04/27 12:05:49;;;;;;;7.22;4.72;;;16.80;55.80;;;;;;5117033;27;20015;-56
2022/04/27 12:08:19;;;;;;;9.38;5.05;;;16.80;56.00;;;;;;5134259;27;20019;-58
2022/04/27 12:10:46;;;;;;;9.48;5.50;;;16.90;55.90;;;;;;5134769;27;20119;-53
2022/04/27 12:13:13;;;;;;;7.07;4.60;;;17.10;55.90;;;;;;5134065;27;20054;-55
2022/04/27 12:15:41;;;;;;;6.70;5.20;;;17.20;55.50;;;;;;5116219;27;20072;-56
2022/04/27 12:18:16;;;;;;;7.53;5.13;;;17.30;54.80;;;;;;5115344;27;20019;-57
2022/04/27 12:20:44;;;;;;;5.82;4.50;;;17.20;54.40;;;;;;5115872;27;20023;-55
2022/04/27 12:23:12;;;;;;;5.47;4.53;;;17.10;54.80;;;;;;5133654;27;20098;-56
2022/04/27 12:25:59;;;;;;;7.40;5.05;;;17.00;54.80;;;;;;5134333;27;20528;-55
2022/04/27 12:28:29;;;;;;;8.95;4.43;;;16.90;55.20;;;;;;5134107;27;20019;-53
2022/04/27 12:30:58;;;;;;;6.88;5.25;;;16.70;55.30;;;;;;5115223;27;20038;-57
2022/04/27 12:33:33;;;;;;;8.18;4.53;;;16.60;55.90;;;;;;5133241;27;20015;-54
2022/04/27 12:39:11;;;;;;;10.30;5.45;;;16.40;56.90;;;;;;5134502;27;20491;-56
2022/04/27 12:41:44;;;;;;;8.32;5.40;;;16.40;57.30;;;;;;5129501;27;20460;-56
2022/04/27 12:44:21;;;;;;;7.30;4.60;;;16.50;56.90;;;;;;5115338;27;20127;-60
2022/04/27 12:46:55;;;;;;;5.55;4.57;;;16.60;56.40;;;;;;5134295;27;20037;-60
2022/04/27 12:49:28;;;;;;;9.23;5.30;;;16.60;56.20;;;;;;5115658;27;20051;-56
2022/04/27 12:51:57;;;;;;;7.63;4.88;;;16.70;56.20;;;;;;5114595;27;20122;-63
2022/04/27 12:54:36;;;;;;;8.43;4.70;;;16.60;56.30;;;;;;5133691;27;20023;-57
2022/04/27 12:57:02;;;;;;;11.35;4.82;;;16.50;56.50;;;;;;5133332;27;20026;-56
2022/04/27 12:59:28;;;;;;;8.93;4.63;;;16.50;56.50;;;;;;5133922;27;20173;-56
2022/04/27 13:02:04;;;;;;;6.00;5.40;;;16.40;56.60;;;;;;5133749;27;20487;-63
2022/04/27 13:04:31;;;;;;;6.75;4.88;;;16.60;56.30;;;;;;5133664;27;20022;-57
2022/04/27 13:06:59;;;;;;;7.65;5.22;;;16.70;55.80;;;;;;5114592;27;20491;-59
2022/04/27 13:12:10;;;;;;;11.23;5.50;;;17.00;55.00;;;;;;5133339;27;20115;-56
2022/04/27 13:14:35;;;;;;;6.82;5.35;;;17.20;54.60;;;;;;5133735;27;20489;-55
2022/04/27 13:17:01;;;;;;;9.93;5.53;;;17.40;54.10;;;;;;5133052;27;20039;-55